sensor_id;sensor_type;location;lat;lon;timestamp;pressure;altitude;pressure_sealevel;temperature;humidity
69351;BME280;57106;51.446;-2.606;2023-04-26T00:08:34;101755.88;;;9.94;53.96
69351;BME280;57106;51.446;-2.606;2023-04-26T00:10:46;101759.36;;;9.84;54.22
69351;BME280;57106;51.446;-2.606;2023-04-26T00:13:11;101761.16;;;9.93;54.16
69351;BME280;57106;51.446;-2.606;2023-04-26T00:15:38;101764.79;;;10.15;54.00
69351;BME280;57106;51.446;-2.606;2023-04-26T00:18:06;101761.46;;;9.92;53.70
69351;BME280;57106;51.446;-2.606;2023-04-26T00:20:31;101760.61;;;9.86;54.19
69351;BME280;57106;51.446;-2.606;2023-04-26T00:22:52;101756.39;;;9.91;54.25
69351;BME280;57106;51.446;-2.606;2023-04-26T00:25:23;101754.91;;;9.75;54.32
69351;BME280;57106;51.446;-2.606;2023-04-26T00:30:26;101756.07;;;10.06;53.43
69351;BME280;57106;51.446;-2.606;2023-04-26T00:32:39;101754.41;;;10.05;53.74
69351;BME280;57106;51.446;-2.606;2023-04-26T00:35:04;101755.72;;;10.06;54.07
69351;BME280;57106;51.446;-2.606;2023-04-26T00:44:45;101745.75;;;9.86;54.36
69351;BME280;57106;51.446;-2.606;2023-04-26T00:47:16;101741.47;;;10.00;54.22
69351;BME280;57106;51.446;-2.606;2023-04-26T00:49:41;101743.40;;;10.12;53.92
69351;BME280;57106;51.446;-2.606;2023-04-26T00:52:04;101744.02;;;9.93;54.21
69351;BME280;57106;51.446;-2.606;2023-04-26T00:59:30;101750.23;;;9.66;55.32
69351;BME280;57106;51.446;-2.606;2023-04-26T01:06:34;101740.55;;;10.02;54.95
69351;BME280;57106;51.446;-2.606;2023-04-26T01:09:07;101742.41;;;9.91;55.45
69351;BME280;57106;51.446;-2.606;2023-04-26T01:11:35;101742.90;;;10.02;55.39
69351;BME280;57106;51.446;-2.606;2023-04-26T01:13:51;101739.23;;;9.87;55.62
69351;BME280;57106;51.446;-2.606;2023-04-26T01:16:22;101743.26;;;9.79;55.21
69351;BME280;57106;51.446;-2.606;2023-04-26T01:21:21;101737.22;;;9.77;55.41
69351;BME280;57106;51.446;-2.606;2023-04-26T01:26:21;101731.99;;;9.47;56.01
69351;BME280;57106;51.446;-2.606;2023-04-26T01:28:31;101730.90;;;9.55;55.58
69351;BME280;57106;51.446;-2.606;2023-04-26T01:30:59;101732.05;;;9.64;55.18
69351;BME280;57106;51.446;-2.606;2023-04-26T01:35:53;101731.00;;;9.54;54.74
69351;BME280;57106;51.446;-2.606;2023-04-26T01:38:19;101734.17;;;9.50;54.77
69351;BME280;57106;51.446;-2.606;2023-04-26T01:41:04;101728.32;;;9.30;55.36
69351;BME280;57106;51.446;-2.606;2023-04-26T01:43:13;101731.60;;;9.35;55.53
69351;BME280;57106;51.446;-2.606;2023-04-26T01:45:32;101733.29;;;9.37;55.77
69351;BME280;57106;51.446;-2.606;2023-04-26T01:48:06;101735.58;;;9.64;55.19
69351;BME280;57106;51.446;-2.606;2023-04-26T01:50:26;101734.68;;;9.59;54.95
69351;BME280;57106;51.446;-2.606;2023-04-26T01:52:52;101733.05;;;9.50;55.59
69351;BME280;57106;51.446;-2.606;2023-04-26T01:55:48;101734.16;;;9.57;55.21
69351;BME280;57106;51.446;-2.606;2023-04-26T02:00:25;101729.38;;;9.69;55.00
69351;BME280;57106;51.446;-2.606;2023-04-26T02:07:39;101737.14;;;9.84;55.04
69351;BME280;57106;51.446;-2.606;2023-04-26T02:10:03;101738.15;;;9.88;55.42
69351;BME280;57106;51.446;-2.606;2023-04-26T02:12:31;101739.71;;;10.04;54.91
69351;BME280;57106;51.446;-2.606;2023-04-26T02:14:59;101741.05;;;10.04;54.94
69351;BME280;57106;51.446;-2.606;2023-04-26T02:17:23;101738.90;;;10.06;54.56
69351;BME280;57106;51.446;-2.606;2023-04-26T02:19:51;101730.02;;;9.92;55.11
69351;BME280;57106;51.446;-2.606;2023-04-26T02:22:10;101725.32;;;9.70;55.19
69351;BME280;57106;51.446;-2.606;2023-04-26T02:24:30;101721.84;;;9.63;55.21
69351;BME280;57106;51.446;-2.606;2023-04-26T02:27:06;101722.42;;;9.84;54.34
69351;BME280;57106;51.446;-2.606;2023-04-26T02:29:27;101720.84;;;9.51;54.91
69351;BME280;57106;51.446;-2.606;2023-04-26T02:32:03;101715.18;;;9.19;55.96
69351;BME280;57106;51.446;-2.606;2023-04-26T02:36:44;101708.32;;;9.26;55.73
69351;BME280;57106;51.446;-2.606;2023-04-26T02:41:46;101699.41;;;9.29;54.92
69351;BME280;57106;51.446;-2.606;2023-04-26T02:44:13;101697.76;;;9.06;55.57
69351;BME280;57106;51.446;-2.606;2023-04-26T02:49:05;101703.86;;;9.34;54.91
69351;BME280;57106;51.446;-2.606;2023-04-26T02:51:26;101704.33;;;8.98;55.42
69351;BME280;57106;51.446;-2.606;2023-04-26T02:56:36;101698.72;;;9.32;54.80
69351;BME280;57106;51.446;-2.606;2023-04-26T02:58:44;101696.06;;;9.32;54.97
69351;BME280;57106;51.446;-2.606;2023-04-26T03:01:09;101694.10;;;9.00;55.20
69351;BME280;57106;51.446;-2.606;2023-04-26T03:03:30;101697.23;;;9.12;54.84
69351;BME280;57106;51.446;-2.606;2023-04-26T03:06:13;101691.57;;;9.02;55.73
69351;BME280;57106;51.446;-2.606;2023-04-26T03:08:26;101686.85;;;9.18;55.27
69351;BME280;57106;51.446;-2.606;2023-04-26T03:10:44;101686.95;;;9.40;54.86
69351;BME280;57106;51.446;-2.606;2023-04-26T03:13:15;101683.70;;;9.26;54.63
69351;BME280;57106;51.446;-2.606;2023-04-26T03:15:30;101683.70;;;9.07;54.96
69351;BME280;57106;51.446;-2.606;2023-04-26T03:17:55;101680.61;;;9.08;55.11
69351;BME280;57106;51.446;-2.606;2023-04-26T03:20:21;101678.93;;;8.63;56.00
69351;BME280;57106;51.446;-2.606;2023-04-26T03:22:49;101674.66;;;8.64;56.03
69351;BME280;57106;51.446;-2.606;2023-04-26T03:25:12;101670.15;;;8.65;56.10
69351;BME280;57106;51.446;-2.606;2023-04-26T03:27:38;101663.19;;;8.86;55.38
69351;BME280;57106;51.446;-2.606;2023-04-26T03:30:05;101661.10;;;8.53;56.06
69351;BME280;57106;51.446;-2.606;2023-04-26T03:32:31;101659.81;;;8.50;56.18
69351;BME280;57106;51.446;-2.606;2023-04-26T03:34:55;101652.06;;;8.43;56.55
69351;BME280;57106;51.446;-2.606;2023-04-26T03:37:20;101647.39;;;8.57;56.61
69351;BME280;57106;51.446;-2.606;2023-04-26T03:39:47;101645.56;;;8.63;56.67
69351;BME280;57106;51.446;-2.606;2023-04-26T03:42:12;101642.60;;;8.67;56.59
69351;BME280;57106;51.446;-2.606;2023-04-26T03:47:03;101645.97;;;8.82;56.09
69351;BME280;57106;51.446;-2.606;2023-04-26T03:49:28;101644.23;;;8.74;56.63
69351;BME280;57106;51.446;-2.606;2023-04-26T03:51:55;101641.27;;;8.80;56.45
69351;BME280;57106;51.446;-2.606;2023-04-26T03:54:21;101638.99;;;8.51;57.11
69351;BME280;57106;51.446;-2.606;2023-04-26T03:56:46;101638.80;;;8.41;57.60
69351;BME280;57106;51.446;-2.606;2023-04-26T03:59:11;101636.19;;;8.42;57.76
69351;BME280;57106;51.446;-2.606;2023-04-26T04:01:36;101635.72;;;8.56;57.63
69351;BME280;57106;51.446;-2.606;2023-04-26T04:04:05;101632.94;;;8.46;57.62
69351;BME280;57106;51.446;-2.606;2023-04-26T04:06:29;101630.52;;;8.50;57.98
69351;BME280;57106;51.446;-2.606;2023-04-26T04:08:56;101627.96;;;8.51;58.04
69351;BME280;57106;51.446;-2.606;2023-04-26T04:11:20;101627.08;;;8.54;57.94
69351;BME280;57106;51.446;-2.606;2023-04-26T04:13:45;101622.79;;;8.44;58.24
69351;BME280;57106;51.446;-2.606;2023-04-26T04:16:10;101625.18;;;8.52;58.21
69351;BME280;57106;51.446;-2.606;2023-04-26T04:18:36;101619.02;;;8.36;58.61
69351;BME280;57106;51.446;-2.606;2023-04-26T04:21:05;101615.27;;;8.37;58.87
69351;BME280;57106;51.446;-2.606;2023-04-26T04:23:27;101614.63;;;8.29;58.96
69351;BME280;57106;51.446;-2.606;2023-04-26T04:25:54;101613.07;;;8.19;59.41
69351;BME280;57106;51.446;-2.606;2023-04-26T04:28:18;101612.71;;;8.09;59.88
69351;BME280;57106;51.446;-2.606;2023-04-26T04:30:44;101607.75;;;8.16;59.72
69351;BME280;57106;51.446;-2.606;2023-04-26T04:33:10;101608.53;;;8.27;59.43
69351;BME280;57106;51.446;-2.606;2023-04-26T04:35:48;101611.68;;;8.27;59.51
69351;BME280;57106;51.446;-2.606;2023-04-26T04:55:02;101615.89;;;9.09;57.90
69351;BME280;57106;51.446;-2.606;2023-04-26T04:57:27;101615.90;;;8.97;58.14
69351;BME280;57106;51.446;-2.606;2023-04-26T04:59:54;101618.97;;;9.04;57.82
69351;BME280;57106;51.446;-2.606;2023-04-26T05:02:18;101619.70;;;8.74;58.66
69351;BME280;57106;51.446;-2.606;2023-04-26T05:04:44;101621.24;;;8.74;58.90
69351;BME280;57106;51.446;-2.606;2023-04-26T05:07:25;101623.78;;;8.99;58.16
69351;BME280;57106;51.446;-2.606;2023-04-26T05:12:28;101627.41;;;9.22;57.75
69351;BME280;57106;51.446;-2.606;2023-04-26T05:14:49;101630.44;;;9.11;58.00
69351;BME280;57106;51.446;-2.606;2023-04-26T05:20:58;101627.26;;;9.34;57.38
69351;BME280;57106;51.446;-2.606;2023-04-26T05:25:03;101624.78;;;9.05;58.48
69351;BME280;57106;51.446;-2.606;2023-04-26T05:29:55;101624.87;;;9.19;58.30
69351;BME280;57106;51.446;-2.606;2023-04-26T05:35:24;101620.60;;;9.25;58.08
69351;BME280;57106;51.446;-2.606;2023-04-26T05:37:26;101619.11;;;9.29;57.92
69351;BME280;57106;51.446;-2.606;2023-04-26T05:39:15;101615.99;;;9.33;58.04
69351;BME280;57106;51.446;-2.606;2023-04-26T05:51:48;101615.72;;;9.56;57.87
69351;BME280;57106;51.446;-2.606;2023-04-26T06:12:01;101621.45;;;9.09;58.81
69351;BME280;57106;51.446;-2.606;2023-04-26T06:20:51;101619.24;;;9.34;59.00
69351;BME280;57106;51.446;-2.606;2023-04-26T06:26:14;101623.32;;;9.34;59.00
69351;BME280;57106;51.446;-2.606;2023-04-26T06:59:52;101619.28;;;9.88;58.53
69351;BME280;57106;51.446;-2.606;2023-04-26T07:02:17;101620.60;;;9.85;58.41
69351;BME280;57106;51.446;-2.606;2023-04-26T07:07:08;101624.86;;;10.24;57.79
69351;BME280;57106;51.446;-2.606;2023-04-26T07:09:34;101624.90;;;10.35;57.40
69351;BME280;57106;51.446;-2.606;2023-04-26T07:12:01;101626.23;;;10.29;56.93
69351;BME280;57106;51.446;-2.606;2023-04-26T07:14:25;101627.64;;;10.32;57.50
69351;BME280;57106;51.446;-2.606;2023-04-26T07:16:51;101630.94;;;10.43;57.13
69351;BME280;57106;51.446;-2.606;2023-04-26T07:19:17;101628.22;;;10.03;57.91
69351;BME280;57106;51.446;-2.606;2023-04-26T07:21:42;101631.91;;;9.85;58.78
69351;BME280;57106;51.446;-2.606;2023-04-26T07:24:08;101632.07;;;9.85;58.68
69351;BME280;57106;51.446;-2.606;2023-04-26T07:26:34;101637.54;;;9.79;58.86
69351;BME280;57106;51.446;-2.606;2023-04-26T07:29:04;101638.99;;;10.03;58.64
69351;BME280;57106;51.446;-2.606;2023-04-26T07:31:24;101637.54;;;9.96;58.62
69351;BME280;57106;51.446;-2.606;2023-04-26T07:33:51;101644.32;;;10.30;58.07
69351;BME280;57106;51.446;-2.606;2023-04-26T07:36:16;101641.14;;;10.15;58.00
69351;BME280;57106;51.446;-2.606;2023-04-26T07:38:46;101638.69;;;10.29;58.21
69351;BME280;57106;51.446;-2.606;2023-04-26T07:41:07;101638.64;;;10.39;57.94
69351;BME280;57106;51.446;-2.606;2023-04-26T07:43:33;101640.85;;;10.45;57.55
69351;BME280;57106;51.446;-2.606;2023-04-26T07:46:01;101636.27;;;10.61;57.44
69351;BME280;57106;51.446;-2.606;2023-04-26T07:48:26;101634.17;;;10.80;57.07
69351;BME280;57106;51.446;-2.606;2023-04-26T07:50:49;101628.49;;;10.73;56.90
69351;BME280;57106;51.446;-2.606;2023-04-26T07:53:17;101624.97;;;10.56;57.39
69351;BME280;57106;51.446;-2.606;2023-04-26T07:55:41;101628.93;;;10.67;57.45
69351;BME280;57106;51.446;-2.606;2023-04-26T07:58:06;101625.39;;;10.36;58.07
69351;BME280;57106;51.446;-2.606;2023-04-26T08:00:32;101625.03;;;10.12;58.75
69351;BME280;57106;51.446;-2.606;2023-04-26T08:02:57;101629.24;;;10.00;59.38
69351;BME280;57106;51.446;-2.606;2023-04-26T08:05:23;101631.47;;;10.11;58.87
69351;BME280;57106;51.446;-2.606;2023-04-26T08:07:48;101636.88;;;10.26;59.19
69351;BME280;57106;51.446;-2.606;2023-04-26T08:10:17;101634.79;;;10.04;59.68
69351;BME280;57106;51.446;-2.606;2023-04-26T08:12:39;101637.39;;;9.96;59.90
69351;BME280;57106;51.446;-2.606;2023-04-26T08:15:11;101635.98;;;10.15;59.40
69351;BME280;57106;51.446;-2.606;2023-04-26T08:17:31;101636.30;;;10.33;59.18
69351;BME280;57106;51.446;-2.606;2023-04-26T08:19:57;101637.35;;;10.58;58.88
69351;BME280;57106;51.446;-2.606;2023-04-26T08:22:21;101646.55;;;10.45;59.05
69351;BME280;57106;51.446;-2.606;2023-04-26T08:24:49;101651.68;;;10.54;59.18
69351;BME280;57106;51.446;-2.606;2023-04-26T08:29:38;101646.79;;;10.45;59.27
69351;BME280;57106;51.446;-2.606;2023-04-26T08:32:04;101638.77;;;10.46;59.33
69351;BME280;57106;51.446;-2.606;2023-04-26T08:34:31;101640.75;;;10.53;59.14
69351;BME280;57106;51.446;-2.606;2023-04-26T08:37:02;101635.22;;;10.72;58.73
69351;BME280;57106;51.446;-2.606;2023-04-26T08:39:32;101635.91;;;11.05;57.96
69351;BME280;57106;51.446;-2.606;2023-04-26T08:41:53;101634.63;;;11.38;57.36
69351;BME280;57106;51.446;-2.606;2023-04-26T08:44:45;101628.76;;;11.93;56.40
69351;BME280;57106;51.446;-2.606;2023-04-26T08:51:54;101625.88;;;12.23;55.44
69351;BME280;57106;51.446;-2.606;2023-04-26T08:56:29;101623.32;;;12.22;55.38
69351;BME280;57106;51.446;-2.606;2023-04-26T09:01:44;101626.01;;;12.37;54.92
69351;BME280;57106;51.446;-2.606;2023-04-26T09:07:04;101630.66;;;12.45;54.80
69351;BME280;57106;51.446;-2.606;2023-04-26T09:13:55;101629.61;;;12.40;55.32
69351;BME280;57106;51.446;-2.606;2023-04-26T09:21:08;101628.21;;;12.72;54.42
69351;BME280;57106;51.446;-2.606;2023-04-26T09:30:48;101622.46;;;13.39;53.31
69351;BME280;57106;51.446;-2.606;2023-04-26T09:35:41;101620.91;;;12.86;54.37
69351;BME280;57106;51.446;-2.606;2023-04-26T09:40:37;101619.58;;;12.88;54.80
69351;BME280;57106;51.446;-2.606;2023-04-26T09:45:42;101616.65;;;12.93;54.56
69351;BME280;57106;51.446;-2.606;2023-04-26T09:47:43;101617.05;;;13.38;54.22
69351;BME280;57106;51.446;-2.606;2023-04-26T09:52:31;101616.24;;;13.69;53.31
69351;BME280;57106;51.446;-2.606;2023-04-26T09:55:08;101617.78;;;13.54;53.11
69351;BME280;57106;51.446;-2.606;2023-04-26T09:57:33;101620.05;;;13.67;52.92
69351;BME280;57106;51.446;-2.606;2023-04-26T09:59:54;101620.38;;;13.71;52.98
69351;BME280;57106;51.446;-2.606;2023-04-26T10:04:44;101627.79;;;13.49;53.74
69351;BME280;57106;51.446;-2.606;2023-04-26T10:09:40;101616.59;;;13.30;54.27
69351;BME280;57106;51.446;-2.606;2023-04-26T10:12:17;101618.70;;;13.31;54.49
69351;BME280;57106;51.446;-2.606;2023-04-26T10:17:40;101620.13;;;13.53;53.86
69351;BME280;57106;51.446;-2.606;2023-04-26T10:20:01;101623.91;;;13.57;53.64
69351;BME280;57106;51.446;-2.606;2023-04-26T10:21:57;101619.13;;;13.30;54.39
69351;BME280;57106;51.446;-2.606;2023-04-26T10:24:25;101619.49;;;13.05;55.42
69351;BME280;57106;51.446;-2.606;2023-04-26T10:29:09;101612.36;;;12.94;55.54
69351;BME280;57106;51.446;-2.606;2023-04-26T10:41:32;101609.03;;;13.06;55.68
69351;BME280;57106;51.446;-2.606;2023-04-26T10:43:56;101603.57;;;12.76;56.18
69351;BME280;57106;51.446;-2.606;2023-04-26T11:00:42;101593.50;;;13.58;55.01
69351;BME280;57106;51.446;-2.606;2023-04-26T11:03:24;101590.10;;;13.39;55.16
69351;BME280;57106;51.446;-2.606;2023-04-26T11:05:59;101587.22;;;13.21;55.37
69351;BME280;57106;51.446;-2.606;2023-04-26T11:08:14;101588.05;;;13.24;55.59
69351;BME280;57106;51.446;-2.606;2023-04-26T11:10:56;101583.62;;;13.47;55.35
69351;BME280;57106;51.446;-2.606;2023-04-26T11:13:31;101581.28;;;13.98;54.13
69351;BME280;57106;51.446;-2.606;2023-04-26T11:18:10;101583.40;;;14.56;52.83
69351;BME280;57106;51.446;-2.606;2023-04-26T11:32:35;101568.59;;;14.38;53.26
69351;BME280;57106;51.446;-2.606;2023-04-26T11:43:17;101564.22;;;14.68;52.98
69351;BME280;57106;51.446;-2.606;2023-04-26T11:45:11;101563.43;;;14.65;52.48
69351;BME280;57106;51.446;-2.606;2023-04-26T11:49:35;101554.80;;;14.56;53.04
69351;BME280;57106;51.446;-2.606;2023-04-26T11:51:59;101563.36;;;14.42;53.43
69351;BME280;57106;51.446;-2.606;2023-04-26T11:59:27;101564.64;;;14.21;53.97
69351;BME280;57106;51.446;-2.606;2023-04-26T12:08:39;101556.32;;;14.41;54.11
69351;BME280;57106;51.446;-2.606;2023-04-26T12:11:05;101557.39;;;14.46;53.74
69351;BME280;57106;51.446;-2.606;2023-04-26T12:13:32;101557.97;;;14.55;53.29
69351;BME280;57106;51.446;-2.606;2023-04-26T12:18:30;101557.35;;;14.31;54.17
69351;BME280;57106;51.446;-2.606;2023-04-26T12:20:47;101564.88;;;14.00;54.90
69351;BME280;57106;51.446;-2.606;2023-04-26T12:23:16;101565.85;;;14.45;53.93
69351;BME280;57106;51.446;-2.606;2023-04-26T12:25:39;101561.66;;;14.61;53.48
69351;BME280;57106;51.446;-2.606;2023-04-26T12:28:05;101563.49;;;14.78;53.03
69351;BME280;57106;51.446;-2.606;2023-04-26T12:30:31;101561.52;;;14.20;54.19
69351;BME280;57106;51.446;-2.606;2023-04-26T12:32:55;101563.41;;;14.27;54.74
69351;BME280;57106;51.446;-2.606;2023-04-26T12:35:24;101562.47;;;14.11;55.13
69351;BME280;57106;51.446;-2.606;2023-04-26T12:37:46;101560.14;;;14.32;54.46
69351;BME280;57106;51.446;-2.606;2023-04-26T12:40:18;101557.05;;;14.75;53.46
69351;BME280;57106;51.446;-2.606;2023-04-26T12:42:37;101554.13;;;14.92;53.25
69351;BME280;57106;51.446;-2.606;2023-04-26T12:45:03;101554.74;;;14.62;53.41
69351;BME280;57106;51.446;-2.606;2023-04-26T12:47:30;101553.50;;;14.85;53.02
69351;BME280;57106;51.446;-2.606;2023-04-26T12:49:54;101554.02;;;14.61;53.54
69351;BME280;57106;51.446;-2.606;2023-04-26T12:52:19;101553.53;;;14.88;52.95
69351;BME280;57106;51.446;-2.606;2023-04-26T12:54:45;101552.09;;;14.97;53.15
69351;BME280;57106;51.446;-2.606;2023-04-26T12:57:10;101550.25;;;15.20;52.72
69351;BME280;57106;51.446;-2.606;2023-04-26T12:59:36;101545.36;;;14.68;53.54
69351;BME280;57106;51.446;-2.606;2023-04-26T13:02:07;101542.71;;;14.51;53.81
69351;BME280;57106;51.446;-2.606;2023-04-26T13:04:27;101543.41;;;14.25;54.55
69351;BME280;57106;51.446;-2.606;2023-04-26T13:06:52;101539.27;;;14.79;54.06
69351;BME280;57106;51.446;-2.606;2023-04-26T13:09:18;101543.16;;;14.82;53.72
69351;BME280;57106;51.446;-2.606;2023-04-26T13:11:44;101544.69;;;14.75;53.54
69351;BME280;57106;51.446;-2.606;2023-04-26T13:14:08;101546.07;;;14.70;53.44
69351;BME280;57106;51.446;-2.606;2023-04-26T13:16:36;101552.66;;;15.09;52.99
69351;BME280;57106;51.446;-2.606;2023-04-26T13:19:01;101557.13;;;15.19;52.60
69351;BME280;57106;51.446;-2.606;2023-04-26T13:21:25;101562.38;;;15.08;52.52
69351;BME280;57106;51.446;-2.606;2023-04-26T13:23:52;101571.43;;;15.04;52.96
69351;BME280;57106;51.446;-2.606;2023-04-26T13:26:16;101562.66;;;14.63;54.00
69351;BME280;57106;51.446;-2.606;2023-04-26T13:28:41;101566.58;;;14.87;53.59
69351;BME280;57106;51.446;-2.606;2023-04-26T13:31:07;101563.47;;;14.80;53.67
69351;BME280;57106;51.446;-2.606;2023-04-26T13:33:33;101562.76;;;14.90;53.37
69351;BME280;57106;51.446;-2.606;2023-04-26T13:36:02;101560.62;;;15.04;52.83
69351;BME280;57106;51.446;-2.606;2023-04-26T13:38:24;101559.29;;;14.91;53.31
69351;BME280;57106;51.446;-2.606;2023-04-26T13:40:51;101559.57;;;14.64;54.02
69351;BME280;57106;51.446;-2.606;2023-04-26T13:43:16;101559.37;;;14.57;53.95
69351;BME280;57106;51.446;-2.606;2023-04-26T13:45:40;101553.60;;;14.66;53.94
69351;BME280;57106;51.446;-2.606;2023-04-26T13:48:07;101552.16;;;14.75;53.93
69351;BME280;57106;51.446;-2.606;2023-04-26T13:50:31;101554.44;;;14.83;53.56
69351;BME280;57106;51.446;-2.606;2023-04-26T13:53:02;101555.19;;;14.35;54.40
69351;BME280;57106;51.446;-2.606;2023-04-26T13:55:22;101551.40;;;14.36;54.29
69351;BME280;57106;51.446;-2.606;2023-04-26T13:57:48;101557.09;;;14.40;54.42
69351;BME280;57106;51.446;-2.606;2023-04-26T14:00:16;101559.04;;;14.05;54.87
69351;BME280;57106;51.446;-2.606;2023-04-26T14:02:38;101562.45;;;13.76;55.88
69351;BME280;57106;51.446;-2.606;2023-04-26T14:05:05;101564.51;;;14.18;55.25
69351;BME280;57106;51.446;-2.606;2023-04-26T14:07:32;101562.28;;;14.30;55.12
69351;BME280;57106;51.446;-2.606;2023-04-26T14:09:56;101562.83;;;14.07;55.38
69351;BME280;57106;51.446;-2.606;2023-04-26T14:12:22;101561.80;;;13.86;55.65
69351;BME280;57106;51.446;-2.606;2023-04-26T14:14:47;101558.61;;;14.19;55.13
69351;BME280;57106;51.446;-2.606;2023-04-26T14:17:15;101552.85;;;14.56;54.07
69351;BME280;57106;51.446;-2.606;2023-04-26T14:19:38;101557.04;;;14.45;54.68
69351;BME280;57106;51.446;-2.606;2023-04-26T14:22:09;101552.39;;;14.43;54.06
69351;BME280;57106;51.446;-2.606;2023-04-26T14:24:31;101547.70;;;14.56;54.21
69351;BME280;57106;51.446;-2.606;2023-04-26T14:26:55;101545.96;;;14.53;54.50
69351;BME280;57106;51.446;-2.606;2023-04-26T14:29:23;101545.53;;;14.60;54.20
69351;BME280;57106;51.446;-2.606;2023-04-26T14:31:46;101543.65;;;14.60;54.38
69351;BME280;57106;51.446;-2.606;2023-04-26T14:34:12;101544.81;;;14.37;55.20
69351;BME280;57106;51.446;-2.606;2023-04-26T14:36:42;101543.79;;;14.25;54.65
69351;BME280;57106;51.446;-2.606;2023-04-26T14:39:03;101542.15;;;14.39;54.46
69351;BME280;57106;51.446;-2.606;2023-04-26T14:41:29;101543.01;;;14.51;54.51
69351;BME280;57106;51.446;-2.606;2023-04-26T14:43:53;101541.48;;;14.71;54.14
69351;BME280;57106;51.446;-2.606;2023-04-26T14:46:24;101541.58;;;14.75;54.13
69351;BME280;57106;51.446;-2.606;2023-04-26T14:48:46;101542.79;;;14.75;54.18
69351;BME280;57106;51.446;-2.606;2023-04-26T14:51:10;101540.11;;;14.26;55.26
69351;BME280;57106;51.446;-2.606;2023-04-26T14:53:43;101542.67;;;14.14;55.93
69351;BME280;57106;51.446;-2.606;2023-04-26T14:56:02;101540.08;;;14.44;55.48
69351;BME280;57106;51.446;-2.606;2023-04-26T14:58:27;101539.04;;;14.46;55.31
69351;BME280;57106;51.446;-2.606;2023-04-26T15:00:53;101542.13;;;14.35;55.38
69351;BME280;57106;51.446;-2.606;2023-04-26T15:03:18;101547.02;;;14.10;56.02
69351;BME280;57106;51.446;-2.606;2023-04-26T15:05:46;101547.38;;;14.13;56.15
69351;BME280;57106;51.446;-2.606;2023-04-26T15:08:10;101542.20;;;14.33;55.89
69351;BME280;57106;51.446;-2.606;2023-04-26T15:10:35;101540.71;;;14.50;55.36
69351;BME280;57106;51.446;-2.606;2023-04-26T15:13:04;101547.14;;;14.19;55.84
69351;BME280;57106;51.446;-2.606;2023-04-26T15:15:25;101548.10;;;14.34;55.28
69351;BME280;57106;51.446;-2.606;2023-04-26T15:17:53;101549.06;;;14.59;55.03
69351;BME280;57106;51.446;-2.606;2023-04-26T15:20:18;101547.50;;;14.67;54.57
69351;BME280;57106;51.446;-2.606;2023-04-26T15:22:57;101544.95;;;14.49;54.39
69351;BME280;57106;51.446;-2.606;2023-04-26T15:25:09;101549.92;;;14.55;54.70
69351;BME280;57106;51.446;-2.606;2023-04-26T15:27:35;101552.11;;;14.23;55.64
69351;BME280;57106;51.446;-2.606;2023-04-26T15:30:23;101553.77;;;14.19;55.76
69351;BME280;57106;51.446;-2.606;2023-04-26T17:26:24;101570.28;;;14.37;53.80
69351;BME280;57106;51.446;-2.606;2023-04-26T17:28:55;101568.53;;;14.55;53.27
69351;BME280;57106;51.446;-2.606;2023-04-26T17:31:14;101563.19;;;14.57;53.18
69351;BME280;57106;51.446;-2.606;2023-04-26T17:33:39;101562.56;;;14.71;53.17
69351;BME280;57106;51.446;-2.606;2023-04-26T17:36:05;101563.24;;;14.47;53.37
69351;BME280;57106;51.446;-2.606;2023-04-26T17:40:55;101563.22;;;14.37;54.08
69351;BME280;57106;51.446;-2.606;2023-04-26T17:43:21;101560.13;;;14.23;54.56
69351;BME280;57106;51.446;-2.606;2023-04-26T17:45:49;101555.64;;;13.90;55.06
69351;BME280;57106;51.446;-2.606;2023-04-26T17:48:12;101555.32;;;14.21;54.43
69351;BME280;57106;51.446;-2.606;2023-04-26T17:50:40;101555.99;;;14.09;54.57
69351;BME280;57106;51.446;-2.606;2023-04-26T17:53:06;101555.62;;;14.03;54.68
69351;BME280;57106;51.446;-2.606;2023-04-26T17:55:29;101558.80;;;14.09;54.60
69351;BME280;57106;51.446;-2.606;2023-04-26T17:57:54;101563.64;;;14.29;54.29
69351;BME280;57106;51.446;-2.606;2023-04-26T18:00:20;101560.14;;;13.92;54.69
69351;BME280;57106;51.446;-2.606;2023-04-26T18:12:28;101567.57;;;14.33;53.94
69351;BME280;57106;51.446;-2.606;2023-04-26T18:14:53;101567.39;;;14.63;53.31
69351;BME280;57106;51.446;-2.606;2023-04-26T18:19:59;101572.88;;;14.36;54.15
69351;BME280;57106;51.446;-2.606;2023-04-26T18:31:52;101580.05;;;14.48;53.84
69351;BME280;57106;51.446;-2.606;2023-04-26T18:46:25;101581.59;;;13.50;55.60
69351;BME280;57106;51.446;-2.606;2023-04-26T20:04:16;101642.38;;;13.34;50.34
69351;BME280;57106;51.446;-2.606;2023-04-26T20:11:22;101643.87;;;13.31;50.48
69351;BME280;57106;51.446;-2.606;2023-04-26T20:33:22;101660.66;;;13.40;50.74
69351;BME280;57106;51.446;-2.606;2023-04-26T20:38:12;101661.53;;;13.30;51.27
69351;BME280;57106;51.446;-2.606;2023-04-26T20:57:41;101674.72;;;13.00;52.75
69351;BME280;57106;51.446;-2.606;2023-04-26T21:04:42;101668.91;;;12.95;53.18
69351;BME280;57106;51.446;-2.606;2023-04-26T21:12:02;101660.74;;;12.71;54.05
69351;BME280;57106;51.446;-2.606;2023-04-26T21:14:24;101658.15;;;12.76;53.82
69351;BME280;57106;51.446;-2.606;2023-04-26T21:16:50;101656.33;;;12.60;54.28
69351;BME280;57106;51.446;-2.606;2023-04-26T21:19:17;101655.59;;;12.60;54.38
69351;BME280;57106;51.446;-2.606;2023-04-26T21:21:49;101662.50;;;12.75;54.32
69351;BME280;57106;51.446;-2.606;2023-04-26T21:24:10;101664.02;;;12.82;54.39
69351;BME280;57106;51.446;-2.606;2023-04-26T21:26:33;101665.97;;;12.57;54.47
69351;BME280;57106;51.446;-2.606;2023-04-26T21:28:57;101664.87;;;12.44;54.96
69351;BME280;57106;51.446;-2.606;2023-04-26T21:31:25;101661.61;;;12.31;55.44
69351;BME280;57106;51.446;-2.606;2023-04-26T21:36:13;101659.17;;;12.29;55.43
69351;BME280;57106;51.446;-2.606;2023-04-26T21:38:40;101662.92;;;12.31;55.35
69351;BME280;57106;51.446;-2.606;2023-04-26T21:41:23;101664.69;;;12.29;55.27
69351;BME280;57106;51.446;-2.606;2023-04-26T21:43:30;101666.46;;;12.22;56.25